Bundyville, New York
Current Conditions -  °F | °C
As of 2:54 PM on Thursday 20 Nov 2014 (Local Time) from KFZY Reporting Station
Broken Clouds Broken Clouds  
Wind Chill: -7°   Ceiling: 6500
Heat Index: -1°   Visibility: 10mi
Dew Point: -13°   Wind: 16mph
Humidity: 38%   Direction: 230°SW
Pressure: 29.82"   Gusts: 22mph
Location:  43.4571°N, 76.4163°W
Report Text: KFZY 201954Z AUTO 23014G19KT 10SM BKN065 BKN100 M01/M13 A2982 RMK AO2 PK WND 24027/1919 SLP105 T10061133
Loading
Personal Weather Stations






























Interactive Weather Map New forecast layout! Learn more

10-Day Weather Forecast

Advertisements
Track Severe Weather on mobile